Time;durP1;ratioP1;P1;durP2;ratioP2;P2;SDS_P1;SDS_P2;PMS_P1;PMS_P2;Temp;Humidity;BMP_temperature;BMP_pressure;BME280_temperature;BME280_humidity;BME280_pressure;Samples;Min_cycle;Max_cycle;Signal;HPM_P1;HPM_P2
2023/10/01 00:02:18;;;;;;;22.27;15.13;;;;;;;;;;5013712;28;20187;-65
2023/10/01 00:04:44;;;;;;;21.60;16.07;;;;;;;;;;5013754;28;20176;-65
2023/10/01 00:07:10;;;;;;;18.47;15.10;;;;;;;;;;5013671;28;20235;-65
2023/10/01 00:09:37;;;;;;;20.20;14.90;;;;;;;;;;5015156;28;20204;-65
2023/10/01 00:12:04;;;;;;;23.30;15.07;;;;;;;;;;5014816;28;20608;-65
2023/10/01 00:14:30;;;;;;;21.47;15.53;;;;;;;;;;5013358;28;20529;-65
2023/10/01 00:16:56;;;;;;;22.23;16.00;;;;;;;;;;5013404;28;20202;-65
2023/10/01 00:19:22;;;;;;;21.40;16.77;;;;;;;;;;5013837;28;20187;-65
2023/10/01 00:21:48;;;;;;;21.50;17.27;;;;;;;;;;5013802;28;20650;-65
2023/10/01 00:24:14;;;;;;;21.20;17.43;;;;;;;;;;5015189;28;20179;-65
2023/10/01 00:26:40;;;;;;;23.73;18.60;;;;;;;;;;5015100;28;20206;-65
2023/10/01 00:29:06;;;;;;;26.27;18.53;;;;;;;;;;5014883;28;20216;-65
2023/10/01 00:31:32;;;;;;;25.17;18.00;;;;;;;;;;5014755;28;20184;-65
2023/10/01 00:33:58;;;;;;;22.23;17.43;;;;;;;;;;5014721;28;20211;-65
2023/10/01 00:36:24;;;;;;;21.13;17.17;;;;;;;;;;5014698;28;20202;-65
2023/10/01 00:38:50;;;;;;;20.43;16.40;;;;;;;;;;5014669;28;20254;-66
2023/10/01 00:41:16;;;;;;;19.00;15.60;;;;;;;;;;5014911;28;20176;-65
2023/10/01 00:43:43;;;;;;;22.93;17.97;;;;;;;;;;5013512;28;20184;-65
2023/10/01 00:46:09;;;;;;;23.07;17.73;;;;;;;;;;5013596;28;20590;-65
2023/10/01 00:48:36;;;;;;;23.17;18.50;;;;;;;;;;5013416;28;20192;-65
2023/10/01 00:51:04;;;;;;;25.03;18.67;;;;;;;;;;5013558;28;20187;-65
2023/10/01 00:53:30;;;;;;;25.77;19.87;;;;;;;;;;5013891;28;20562;-64
2023/10/01 00:55:58;;;;;;;26.00;18.83;;;;;;;;;;5013878;28;20211;-65
2023/10/01 00:58:24;;;;;;;27.57;20.43;;;;;;;;;;5013345;28;20183;-65
2023/10/01 01:00:51;;;;;;;27.83;19.87;;;;;;;;;;5013272;28;20258;-64
2023/10/01 01:03:22;;;;;;;30.23;21.77;;;;;;;;;;5013432;28;20226;-65
2023/10/01 01:06:17;;;;;;;29.30;20.67;;;;;;;;;;5014864;28;20195;-65
2023/10/01 01:08:46;;;;;;;32.20;21.30;;;;;;;;;;5014392;28;20198;-65
2023/10/01 01:11:15;;;;;;;29.43;21.47;;;;;;;;;;5012870;28;20206;-64
2023/10/01 01:13:41;;;;;;;28.07;20.40;;;;;;;;;;5012626;28;20203;-65
2023/10/01 01:16:08;;;;;;;31.57;20.50;;;;;;;;;;5012154;28;20635;-65
2023/10/01 01:18:36;;;;;;;28.07;20.57;;;;;;;;;;5014212;28;20649;-64
2023/10/01 01:21:09;;;;;;;25.23;19.07;;;;;;;;;;5012294;28;20225;-65
2023/10/01 01:23:35;;;;;;;28.03;19.53;;;;;;;;;;5012742;28;20176;-64
2023/10/01 01:26:02;;;;;;;28.50;20.07;;;;;;;;;;5014626;28;20231;-65
2023/10/01 01:28:30;;;;;;;23.37;19.33;;;;;;;;;;5012770;28;20211;-65
2023/10/01 01:30:58;;;;;;;32.13;23.80;;;;;;;;;;5012699;28;20882;-65
2023/10/01 01:33:32;;;;;;;33.60;24.20;;;;;;;;;;5012237;28;20408;-65
2023/10/01 01:35:58;;;;;;;28.80;21.17;;;;;;;;;;5011688;28;20199;-65
2023/10/01 01:38:24;;;;;;;28.37;19.30;;;;;;;;;;5012060;28;20182;-66
2023/10/01 01:40:51;;;;;;;27.33;18.57;;;;;;;;;;5013484;28;20242;-66
2023/10/01 01:43:23;;;;;;;24.10;17.13;;;;;;;;;;5011951;28;20185;-66
2023/10/01 01:45:54;;;;;;;24.13;18.13;;;;;;;;;;5013507;28;20216;-63
2023/10/01 01:48:21;;;;;;;23.20;17.03;;;;;;;;;;5012310;28;20189;-64
2023/10/01 01:50:48;;;;;;;27.77;16.83;;;;;;;;;;5013176;28;20192;-64
2023/10/01 01:53:14;;;;;;;25.97;16.87;;;;;;;;;;5011305;28;20239;-66
2023/10/01 01:55:42;;;;;;;22.33;17.60;;;;;;;;;;5012938;28;20235;-65
2023/10/01 01:58:15;;;;;;;25.73;17.40;;;;;;;;;;5013492;28;20615;-65
2023/10/01 02:01:01;;;;;;;24.37;16.20;;;;;;;;;;5012708;28;20642;-64
2023/10/01 02:03:32;;;;;;;25.17;17.00;;;;;;;;;;5012887;28;20160;-65
2023/10/01 02:05:59;;;;;;;29.10;18.77;;;;;;;;;;5012625;28;20261;-65
2023/10/01 02:08:25;;;;;;;25.47;16.97;;;;;;;;;;5012933;28;20199;-65
2023/10/01 02:10:55;;;;;;;25.48;18.52;;;;;;;;;;5011533;28;20475;-65
2023/10/01 02:13:24;;;;;;;25.73;16.60;;;;;;;;;;5012443;28;20246;-65
2023/10/01 02:15:51;;;;;;;22.43;15.33;;;;;;;;;;5012496;28;20191;-65
2023/10/01 02:18:17;;;;;;;23.73;15.83;;;;;;;;;;5011352;28;20176;-66
2023/10/01 02:20:55;;;;;;;22.57;15.27;;;;;;;;;;5011376;28;20773;-65
2023/10/01 02:23:33;;;;;;;23.80;15.70;;;;;;;;;;5013024;28;20157;-66
2023/10/01 02:26:00;;;;;;;20.33;14.70;;;;;;;;;;5011336;28;20207;-66
2023/10/01 02:28:26;;;;;;;23.43;14.43;;;;;;;;;;5014850;28;20172;-66
2023/10/01 02:31:00;;;;;;;23.47;15.40;;;;;;;;;;5016348;28;20184;-65
2023/10/01 02:36:12;;;;;;;22.57;15.60;;;;;;;;;;5016875;28;20261;-64
2023/10/01 02:38:45;;;;;;;24.70;15.40;;;;;;;;;;5016260;28;20176;-64
2023/10/01 02:41:15;;;;;;;20.77;15.10;;;;;;;;;;5016543;28;20152;-64
2023/10/01 02:43:42;;;;;;;23.10;15.77;;;;;;;;;;5015077;28;20188;-64
2023/10/01 02:46:12;;;;;;;20.60;15.33;;;;;;;;;;5016180;28;20207;-64
2023/10/01 02:48:42;;;;;;;24.70;17.73;;;;;;;;;;5015398;28;20403;-64
2023/10/01 02:51:14;;;;;;;23.80;17.33;;;;;;;;;;5014999;28;20414;-64
2023/10/01 02:54:06;;;;;;;20.77;15.13;;;;;;;;;;5016596;28;20203;-66
2023/10/01 02:56:37;;;;;;;23.80;14.77;;;;;;;;;;5014734;28;20265;-65
2023/10/01 02:59:12;;;;;;;21.80;15.17;;;;;;;;;;5016879;28;20231;-65
2023/10/01 03:01:39;;;;;;;18.70;13.73;;;;;;;;;;5016752;28;20156;-65
2023/10/01 03:04:10;;;;;;;20.33;14.83;;;;;;;;;;5014806;28;20202;-64
2023/10/01 03:06:42;;;;;;;21.73;14.57;;;;;;;;;;5014538;28;20199;-64
2023/10/01 03:09:22;;;;;;;23.60;14.70;;;;;;;;;;5016555;28;20198;-65
2023/10/01 03:11:48;;;;;;;24.00;14.17;;;;;;;;;;5015046;28;20263;-64
2023/10/01 03:14:20;;;;;;;20.33;14.17;;;;;;;;;;5016882;28;20210;-66
2023/10/01 03:16:53;;;;;;;23.87;14.87;;;;;;;;;;5017978;28;20195;-64
2023/10/01 03:19:25;;;;;;;20.67;14.00;;;;;;;;;;5025689;28;20165;-64
2023/10/01 03:24:39;;;;;;;20.83;13.27;;;;;;;;;;5016775;28;20622;-64
2023/10/01 03:27:25;;;;;;;22.60;14.03;;;;;;;;;;5015220;28;20294;-65
2023/10/01 03:30:00;;;;;;;24.37;13.83;;;;;;;;;;5018091;28;20282;-65
2023/10/01 03:32:27;;;;;;;26.07;13.73;;;;;;;;;;5016463;28;20164;-65
2023/10/01 03:34:53;;;;;;;18.43;13.20;;;;;;;;;;5016082;28;20179;-64
2023/10/01 03:37:27;;;;;;;19.03;12.93;;;;;;;;;;5015552;28;20250;-64
2023/10/01 03:40:03;;;;;;;20.60;14.60;;;;;;;;;;5015169;28;20162;-64
2023/10/01 03:42:33;;;;;;;24.17;13.23;;;;;;;;;;5013779;28;20172;-65
2023/10/01 03:45:25;;;;;;;18.87;13.83;;;;;;;;;;5013826;28;20271;-65
2023/10/01 03:47:57;;;;;;;17.50;12.93;;;;;;;;;;5015197;28;20270;-65
2023/10/01 03:50:24;;;;;;;22.27;13.80;;;;;;;;;;5013603;28;20168;-64
2023/10/01 03:52:52;;;;;;;18.57;13.73;;;;;;;;;;5015093;28;20508;-64
2023/10/01 03:55:28;;;;;;;24.33;13.40;;;;;;;;;;5014794;28;20172;-64
2023/10/01 04:00:40;;;;;;;20.83;14.10;;;;;;;;;;5014762;28;20182;-64
2023/10/01 04:03:07;;;;;;;19.37;12.87;;;;;;;;;;5015036;28;20156;-64
2023/10/01 04:05:37;;;;;;;20.57;13.37;;;;;;;;;;5014447;28;20245;-64
2023/10/01 04:08:11;;;;;;;21.07;12.90;;;;;;;;;;5013345;28;20179;-64
2023/10/01 04:10:38;;;;;;;18.43;11.90;;;;;;;;;;5013337;28;20168;-64
2023/10/01 04:13:20;;;;;;;22.63;12.83;;;;;;;;;;5013230;28;20237;-64
2023/10/01 04:15:54;;;;;;;19.67;13.20;;;;;;;;;;5014625;28;20195;-64
2023/10/01 04:18:21;;;;;;;19.87;12.77;;;;;;;;;;5014797;28;20182;-64
2023/10/01 04:23:29;;;;;;;22.17;12.50;;;;;;;;;;5014234;28;20160;-65
2023/10/01 04:26:08;;;;;;;19.73;12.87;;;;;;;;;;5014027;28;20601;-65
2023/10/01 04:28:38;;;;;;;20.60;13.00;;;;;;;;;;5014426;28;20634;-65
2023/10/01 04:31:09;;;;;;;21.50;13.67;;;;;;;;;;5014046;28;20562;-64
2023/10/01 04:33:35;;;;;;;20.10;12.67;;;;;;;;;;5014274;28;20216;-64
2023/10/01 04:36:02;;;;;;;22.73;12.53;;;;;;;;;;5014044;28;20631;-65
2023/10/01 04:38:32;;;;;;;25.13;13.67;;;;;;;;;;5014509;28;20230;-64
2023/10/01 04:41:07;;;;;;;17.77;13.30;;;;;;;;;;5012701;28;20199;-65
2023/10/01 04:43:41;;;;;;;20.67;13.37;;;;;;;;;;5012603;28;20172;-65
2023/10/01 04:46:08;;;;;;;19.00;12.13;;;;;;;;;;5013874;28;20194;-64
2023/10/01 04:48:36;;;;;;;22.03;12.80;;;;;;;;;;5014334;28;20642;-64
2023/10/01 04:51:07;;;;;;;18.27;13.07;;;;;;;;;;5013452;28;20261;-65
2023/10/01 04:53:34;;;;;;;26.50;14.10;;;;;;;;;;5014107;28;20191;-64
2023/10/01 04:56:06;;;;;;;23.43;12.77;;;;;;;;;;5013775;28;20565;-64
2023/10/01 04:58:38;;;;;;;23.13;13.87;;;;;;;;;;5013926;28;20607;-65
2023/10/01 05:01:10;;;;;;;22.13;14.03;;;;;;;;;;5012371;28;20176;-65
2023/10/01 05:03:40;;;;;;;25.53;15.87;;;;;;;;;;5013547;28;20248;-64
2023/10/01 05:06:11;;;;;;;29.20;14.73;;;;;;;;;;5012210;28;20200;-65
2023/10/01 05:08:41;;;;;;;22.50;13.53;;;;;;;;;;5013682;28;20179;-65
2023/10/01 05:11:13;;;;;;;29.20;18.73;;;;;;;;;;5013596;28;20179;-64
2023/10/01 05:13:39;;;;;;;25.88;16.08;;;;;;;;;;5012726;28;20408;-64
2023/10/01 05:16:06;;;;;;;24.17;14.27;;;;;;;;;;5013689;28;20218;-65
2023/10/01 05:18:33;;;;;;;22.17;14.18;;;;;;;;;;5012108;28;20384;-65
2023/10/01 05:20:59;;;;;;;20.33;12.53;;;;;;;;;;5013524;28;20180;-64
2023/10/01 05:23:25;;;;;;;22.77;14.85;;;;;;;;;;5012456;28;20389;-64
2023/10/01 05:25:51;;;;;;;22.97;13.27;;;;;;;;;;5011777;28;20693;-64
2023/10/01 05:28:23;;;;;;;22.63;13.10;;;;;;;;;;5011804;28;20219;-65
2023/10/01 05:30:57;;;;;;;21.03;13.23;;;;;;;;;;5013147;28;20218;-64
2023/10/01 05:33:24;;;;;;;19.57;13.00;;;;;;;;;;5013588;28;20649;-64
2023/10/01 05:35:54;;;;;;;24.30;13.30;;;;;;;;;;5013956;28;20283;-64
2023/10/01 05:38:21;;;;;;;28.57;13.77;;;;;;;;;;5012983;28;20195;-65
2023/10/01 05:40:52;;;;;;;20.57;13.17;;;;;;;;;;5011777;28;20176;-65
2023/10/01 05:43:18;;;;;;;25.57;13.77;;;;;;;;;;5012963;28;20168;-65
2023/10/01 05:45:50;;;;;;;25.97;14.07;;;;;;;;;;5012894;28;20210;-64
2023/10/01 05:48:19;;;;;;;18.77;12.80;;;;;;;;;;5013489;28;20573;-65
2023/10/01 05:50:46;;;;;;;23.80;12.97;;;;;;;;;;5013187;28;20590;-65
2023/10/01 05:53:13;;;;;;;22.97;12.90;;;;;;;;;;5012991;28;20647;-65
2023/10/01 05:55:40;;;;;;;28.37;12.20;;;;;;;;;;5013099;28;20584;-64
2023/10/01 05:58:19;;;;;;;19.27;12.80;;;;;;;;;;5013068;28;20656;-65
2023/10/01 06:01:05;;;;;;;22.60;12.47;;;;;;;;;;5012746;28;20543;-65
2023/10/01 06:03:31;;;;;;;20.30;12.90;;;;;;;;;;5016720;28;20192;-65
2023/10/01 06:05:58;;;;;;;17.43;11.30;;;;;;;;;;5016730;28;20290;-64
2023/10/01 06:08:32;;;;;;;16.93;11.23;;;;;;;;;;5016693;28;20186;-65
2023/10/01 06:11:09;;;;;;;17.77;11.63;;;;;;;;;;5017086;28;20618;-64
2023/10/01 06:13:39;;;;;;;18.17;10.90;;;;;;;;;;5031992;23;20331;-69
2023/10/01 06:16:11;;;;;;;20.27;11.30;;;;;;;;;;5016380;28;20582;-70
2023/10/01 06:18:41;;;;;;;20.47;11.17;;;;;;;;;;5016379;28;20238;-71
2023/10/01 06:21:09;;;;;;;20.67;11.77;;;;;;;;;;5017624;28;20176;-70
2023/10/01 06:23:48;;;;;;;22.57;11.53;;;;;;;;;;5017945;28;20204;-70
2023/10/01 06:26:14;;;;;;;18.37;12.40;;;;;;;;;;5015880;28;20179;-69
2023/10/01 06:28:41;;;;;;;26.93;12.07;;;;;;;;;;5017441;28;20179;-68
2023/10/01 06:31:07;;;;;;;19.53;12.07;;;;;;;;;;5015849;28;20183;-68
2023/10/01 06:33:36;;;;;;;19.97;12.57;;;;;;;;;;5016940;28;20265;-68
2023/10/01 06:36:21;;;;;;;21.43;12.87;;;;;;;;;;5016910;28;20196;-68
2023/10/01 06:38:47;;;;;;;20.07;11.93;;;;;;;;;;5015490;28;20258;-68
2023/10/01 06:41:18;;;;;;;19.10;12.70;;;;;;;;;;5016551;28;20661;-69
2023/10/01 06:43:48;;;;;;;18.90;11.70;;;;;;;;;;5015331;28;20314;-69
2023/10/01 06:46:15;;;;;;;18.53;11.10;;;;;;;;;;5016843;28;20203;-69
2023/10/01 06:48:42;;;;;;;22.77;11.60;;;;;;;;;;5015422;28;20187;-68
2023/10/01 06:51:08;;;;;;;21.13;11.40;;;;;;;;;;5015260;28;20186;-68
2023/10/01 06:53:47;;;;;;;23.50;12.70;;;;;;;;;;5016588;28;20282;-69
2023/10/01 06:56:17;;;;;;;21.03;11.73;;;;;;;;;;5015866;28;20198;-69
2023/10/01 07:01:42;;;;;;;23.93;12.73;;;;;;;;;;5018912;28;20183;-68
2023/10/01 07:04:08;;;;;;;20.03;13.10;;;;;;;;;;5018685;28;20250;-69
2023/10/01 07:06:36;;;;;;;21.13;13.33;;;;;;;;;;5018589;28;20611;-68
2023/10/01 07:09:03;;;;;;;23.43;12.30;;;;;;;;;;5019483;28;20184;-69
2023/10/01 07:11:29;;;;;;;22.13;12.97;;;;;;;;;;5016851;28;20605;-69
2023/10/01 07:13:56;;;;;;;19.40;11.77;;;;;;;;;;5016975;28;20220;-68
2023/10/01 07:16:40;;;;;;;25.43;12.93;;;;;;;;;;5016639;28;20234;-69
2023/10/01 07:19:11;;;;;;;18.40;11.53;;;;;;;;;;5014954;28;20183;-69
2023/10/01 07:21:37;;;;;;;15.77;10.70;;;;;;;;;;5014853;28;20571;-69
2023/10/01 07:24:04;;;;;;;17.53;10.80;;;;;;;;;;5016283;28;20207;-69
2023/10/01 07:26:30;;;;;;;17.20;10.60;;;;;;;;;;5014436;28;20187;-69
2023/10/01 07:28:56;;;;;;;17.27;11.10;;;;;;;;;;5014991;28;20210;-68
2023/10/01 07:31:24;;;;;;;14.87;10.07;;;;;;;;;;5014424;28;20201;-69
2023/10/01 07:33:52;;;;;;;18.27;11.00;;;;;;;;;;5014456;28;20600;-68
2023/10/01 07:36:19;;;;;;;13.90;9.30;;;;;;;;;;5015779;28;20172;-68
2023/10/01 07:38:49;;;;;;;15.80;10.80;;;;;;;;;;5015872;28;20195;-69
2023/10/01 07:41:20;;;;;;;15.10;10.33;;;;;;;;;;5014667;28;20546;-69
2023/10/01 07:43:46;;;;;;;20.30;12.40;;;;;;;;;;5014415;28;20199;-68
2023/10/01 07:46:12;;;;;;;20.97;13.67;;;;;;;;;;5014510;28;20279;-69
2023/10/01 07:48:46;;;;;;;23.20;16.20;;;;;;;;;;5015702;28;20234;-69
2023/10/01 07:51:22;;;;;;;16.73;12.20;;;;;;;;;;5016408;28;20594;-69
2023/10/01 07:53:49;;;;;;;16.50;10.90;;;;;;;;;;5015662;28;20688;-69
2023/10/01 07:56:15;;;;;;;16.07;11.03;;;;;;;;;;5016055;28;20179;-68
2023/10/01 07:58:47;;;;;;;19.00;11.87;;;;;;;;;;5014261;28;20184;-68
2023/10/01 08:04:06;;;;;;;16.63;10.57;;;;;;;;;;5015319;28;20653;-69
2023/10/01 08:06:34;;;;;;;16.87;9.83;;;;;;;;;;5014290;28;20199;-68
2023/10/01 08:09:00;;;;;;;15.13;10.10;;;;;;;;;;5014042;28;20192;-68
2023/10/01 08:14:12;;;;;;;14.90;9.57;;;;;;;;;;5014770;28;20712;-68
2023/10/01 08:16:47;;;;;;;14.93;9.90;;;;;;;;;;5013681;28;20186;-68
2023/10/01 08:19:21;;;;;;;16.73;10.30;;;;;;;;;;5015352;28;20164;-69
2023/10/01 08:21:50;;;;;;;16.37;9.60;;;;;;;;;;5014290;28;20654;-69
2023/10/01 08:24:18;;;;;;;14.37;9.70;;;;;;;;;;5016900;28;20195;-70
2023/10/01 08:27:12;;;;;;;17.20;10.47;;;;;;;;;;5013821;28;20271;-69
2023/10/01 08:32:24;;;;;;;16.13;10.53;;;;;;;;;;5014907;28;20199;-69
2023/10/01 08:35:05;;;;;;;17.53;10.00;;;;;;;;;;5013240;28;20682;-69
2023/10/01 08:37:31;;;;;;;15.87;9.47;;;;;;;;;;5014446;28;20156;-68
2023/10/01 08:40:00;;;;;;;17.20;10.23;;;;;;;;;;5013236;28;20602;-69
2023/10/01 08:42:29;;;;;;;15.87;10.20;;;;;;;;;;5013096;28;20184;-69
2023/10/01 08:45:03;;;;;;;16.47;9.87;;;;;;;;;;5014206;28;20658;-69
2023/10/01 08:47:37;;;;;;;15.07;9.87;;;;;;;;;;5013728;28;20169;-69
2023/10/01 08:50:26;;;;;;;15.97;9.10;;;;;;;;;;5014705;28;20239;-69
2023/10/01 08:53:09;;;;;;;18.67;9.03;;;;;;;;;;5013369;28;20232;-70
2023/10/01 08:55:39;;;;;;;15.47;9.43;;;;;;;;;;5013456;28;20267;-69
2023/10/01 08:58:15;;;;;;;16.80;9.20;;;;;;;;;;5014361;28;20251;-70
2023/10/01 09:00:56;;;;;;;14.83;10.00;;;;;;;;;;5016161;28;20167;-70
2023/10/01 09:03:30;;;;;;;19.47;9.70;;;;;;;;;;5016104;28;20195;-70
2023/10/01 09:06:06;;;;;;;17.27;9.80;;;;;;;;;;5016227;28;20179;-69
2023/10/01 09:08:32;;;;;;;13.83;9.10;;;;;;;;;;5015866;28;20558;-70
2023/10/01 09:11:10;;;;;;;13.60;8.97;;;;;;;;;;5015175;28;20214;-69
2023/10/01 09:13:45;;;;;;;16.00;9.70;;;;;;;;;;5014149;28;20239;-70
2023/10/01 09:16:11;;;;;;;15.53;9.70;;;;;;;;;;5013128;28;20180;-70
2023/10/01 09:18:38;;;;;;;17.20;9.80;;;;;;;;;;5013082;28;20237;-70
2023/10/01 09:21:08;;;;;;;14.17;9.03;;;;;;;;;;5014645;28;20611;-69
2023/10/01 09:23:54;;;;;;;15.13;8.67;;;;;;;;;;5014758;28;20282;-69
2023/10/01 09:26:37;;;;;;;16.77;9.10;;;;;;;;;;5014357;28;20172;-70
2023/10/01 09:29:13;;;;;;;15.80;9.47;;;;;;;;;;5013721;28;20179;-70
2023/10/01 09:31:52;;;;;;;16.90;9.57;;;;;;;;;;5014435;28;20195;-69
2023/10/01 09:34:31;;;;;;;15.93;9.70;;;;;;;;;;5014163;28;20750;-70
2023/10/01 09:36:57;;;;;;;14.13;8.83;;;;;;;;;;5014124;28;20237;-70
2023/10/01 09:39:36;;;;;;;16.20;9.13;;;;;;;;;;5018580;28;20176;-70
2023/10/01 09:42:03;;;;;;;15.17;9.37;;;;;;;;;;5023323;28;20206;-70
2023/10/01 09:44:34;;;;;;;20.03;9.17;;;;;;;;;;5015940;28;20646;-70
2023/10/01 09:47:12;;;;;;;15.60;9.50;;;;;;;;;;5015262;28;20160;-70
2023/10/01 09:49:40;;;;;;;18.03;9.90;;;;;;;;;;5015006;28;20180;-70
2023/10/01 09:52:07;;;;;;;16.70;9.27;;;;;;;;;;5014942;28;20230;-69
2023/10/01 09:54:41;;;;;;;14.23;9.13;;;;;;;;;;5015423;28;20265;-70
2023/10/01 09:57:08;;;;;;;16.00;9.20;;;;;;;;;;5014802;28;20159;-70
2023/10/01 09:59:39;;;;;;;14.77;9.23;;;;;;;;;;5024513;28;20180;-71
2023/10/01 10:02:06;;;;;;;14.97;9.27;;;;;;;;;;5031560;28;20156;-70
2023/10/01 10:04:34;;;;;;;20.80;9.80;;;;;;;;;;5029503;28;20199;-70
2023/10/01 10:07:00;;;;;;;13.00;8.87;;;;;;;;;;5030088;28;20190;-72
2023/10/01 10:09:27;;;;;;;16.60;8.90;;;;;;;;;;5028186;28;20184;-69
2023/10/01 10:11:54;;;;;;;17.77;9.63;;;;;;;;;;5015288;28;20642;-70
2023/10/01 10:14:26;;;;;;;14.10;8.87;;;;;;;;;;5012267;28;20223;-70
2023/10/01 10:16:59;;;;;;;14.53;9.33;;;;;;;;;;5012667;28;20164;-70
2023/10/01 10:19:26;;;;;;;14.27;9.27;;;;;;;;;;5013793;28;20194;-70
2023/10/01 10:24:47;;;;;;;14.83;9.63;;;;;;;;;;5014365;28;20673;-70
2023/10/01 10:27:17;;;;;;;15.40;8.67;;;;;;;;;;5014880;28;20218;-69
2023/10/01 10:29:56;;;;;;;14.30;9.10;;;;;;;;;;5015547;28;20183;-70
2023/10/01 10:32:24;;;;;;;14.63;9.03;;;;;;;;;;5013903;28;20176;-69
2023/10/01 10:35:05;;;;;;;14.80;9.03;;;;;;;;;;5014667;28;20200;-70
2023/10/01 10:37:45;;;;;;;18.70;9.80;;;;;;;;;;5014354;28;20180;-70
2023/10/01 10:43:04;;;;;;;17.10;9.47;;;;;;;;;;5015444;28;20163;-70
2023/10/01 10:45:43;;;;;;;15.30;9.27;;;;;;;;;;5015704;28;20200;-70
2023/10/01 10:48:10;;;;;;;15.20;8.97;;;;;;;;;;5015889;28;20160;-70
2023/10/01 10:50:41;;;;;;;18.50;10.00;;;;;;;;;;5017355;28;20176;-70
2023/10/01 10:53:15;;;;;;;18.03;9.53;;;;;;;;;;5016780;28;20196;-70
2023/10/01 10:55:51;;;;;;;15.97;9.37;;;;;;;;;;5017046;28;20160;-70
2023/10/01 10:58:17;;;;;;;18.07;9.60;;;;;;;;;;5016964;28;20660;-70
2023/10/01 11:00:42;;;;;;;18.50;9.93;;;;;;;;;;5016719;28;20172;-70
2023/10/01 11:03:11;;;;;;;15.97;9.60;;;;;;;;;;5016835;28;20221;-69
2023/10/01 11:05:49;;;;;;;13.20;8.30;;;;;;;;;;5016886;28;20639;-70
2023/10/01 11:08:27;;;;;;;15.67;9.83;;;;;;;;;;5017411;28;20259;-69
2023/10/01 11:10:55;;;;;;;20.20;9.83;;;;;;;;;;5017267;28;20168;-68
2023/10/01 11:14:02;;;;;;;20.20;10.10;;;;;;;;;;5017293;28;20223;-68
2023/10/01 11:16:36;;;;;;;17.07;10.43;;;;;;;;;;5013829;28;20226;-68
2023/10/01 11:19:12;;;;;;;16.30;9.30;;;;;;;;;;5019349;28;20222;-68
2023/10/01 11:21:46;;;;;;;17.10;9.73;;;;;;;;;;5017305;28;20179;-68
2023/10/01 11:24:13;;;;;;;19.17;9.80;;;;;;;;;;5015996;28;20203;-68
2023/10/01 11:26:59;;;;;;;14.83;9.03;;;;;;;;;;5016850;28;20199;-68
2023/10/01 11:29:29;;;;;;;13.60;9.33;;;;;;;;;;5016479;28;20660;-69
2023/10/01 11:31:55;;;;;;;14.27;8.83;;;;;;;;;;5017064;28;20176;-68
2023/10/01 11:34:26;;;;;;;12.80;8.70;;;;;;;;;;5016415;28;20215;-68
2023/10/01 11:36:57;;;;;;;14.50;8.63;;;;;;;;;;5016749;28;20523;-67
2023/10/01 11:39:40;;;;;;;15.13;9.80;;;;;;;;;;5016840;28;20160;-67
2023/10/01 11:42:19;;;;;;;17.17;10.07;;;;;;;;;;5017137;28;20685;-67
2023/10/01 11:44:52;;;;;;;15.53;9.80;;;;;;;;;;5015916;28;20577;-67
2023/10/01 11:47:31;;;;;;;14.50;9.60;;;;;;;;;;5016431;28;20170;-67
2023/10/01 11:50:09;;;;;;;17.17;8.87;;;;;;;;;;5016249;28;20159;-68
2023/10/01 11:52:37;;;;;;;18.03;10.17;;;;;;;;;;5014472;28;20259;-67
2023/10/01 11:55:16;;;;;;;14.83;9.33;;;;;;;;;;5014264;28;20577;-67
2023/10/01 11:57:51;;;;;;;17.10;9.47;;;;;;;;;;5015915;28;20157;-68
2023/10/01 12:00:32;;;;;;;17.27;9.67;;;;;;;;;;5013946;28;20654;-68
2023/10/01 12:02:58;;;;;;;16.20;9.47;;;;;;;;;;5014098;28;20172;-67
2023/10/01 12:05:38;;;;;;;17.40;9.53;;;;;;;;;;5015709;28;20180;-68
2023/10/01 12:08:04;;;;;;;17.37;9.70;;;;;;;;;;5015837;28;20171;-68
2023/10/01 12:10:35;;;;;;;14.07;9.70;;;;;;;;;;5015672;28;20221;-68
2023/10/01 12:13:03;;;;;;;14.73;10.07;;;;;;;;;;5016182;28;20302;-68
2023/10/01 12:15:40;;;;;;;14.83;9.00;;;;;;;;;;5015022;28;20569;-67
2023/10/01 12:18:15;;;;;;;18.27;10.40;;;;;;;;;;5017526;28;20179;-68
2023/10/01 12:20:47;;;;;;;18.90;9.87;;;;;;;;;;5014179;28;20180;-68
2023/10/01 12:23:14;;;;;;;16.90;10.50;;;;;;;;;;5015244;28;20614;-68
2023/10/01 12:25:53;;;;;;;15.67;9.97;;;;;;;;;;5015328;28;20179;-68
2023/10/01 12:30:57;;;;;;;18.23;10.63;;;;;;;;;;5030892;23;20589;-69
2023/10/01 12:33:23;;;;;;;14.30;9.53;;;;;;;;;;5012940;28;20201;-68
2023/10/01 12:35:49;;;;;;;15.40;9.83;;;;;;;;;;5014439;28;20172;-69
2023/10/01 12:40:43;;;;;;;18.40;11.17;;;;;;;;;;5014567;28;20290;-69
2023/10/01 12:45:58;;;;;;;16.87;9.87;;;;;;;;;;5014456;28;20174;-70
2023/10/01 12:48:24;;;;;;;21.17;10.17;;;;;;;;;;5014875;28;20568;-69
2023/10/01 12:51:00;;;;;;;19.67;10.37;;;;;;;;;;5014748;28;20175;-71
2023/10/01 12:53:49;;;;;;;17.23;11.07;;;;;;;;;;5014634;28;20202;-73
2023/10/01 12:56:15;;;;;;;16.27;10.40;;;;;;;;;;5014548;28;20172;-73
2023/10/01 12:58:53;;;;;;;17.53;11.67;;;;;;;;;;5013334;28;20720;-72
2023/10/01 13:01:32;;;;;;;21.57;11.10;;;;;;;;;;5014424;28;20235;-69
2023/10/01 13:04:21;;;;;;;17.70;10.97;;;;;;;;;;5014046;28;20206;-69
2023/10/01 13:06:47;;;;;;;15.03;9.87;;;;;;;;;;5014158;28;20619;-68
2023/10/01 13:12:14;;;;;;;18.13;10.67;;;;;;;;;;5003356;28;20270;-70
2023/10/01 13:15:14;;;;;;;18.43;11.13;;;;;;;;;;5012184;28;20227;-69
2023/10/01 13:17:38;;;;;;;18.83;11.43;;;;;;;;;;5013401;28;20250;-71
2023/10/01 13:20:19;;;;;;;18.97;10.47;;;;;;;;;;5013718;28;20198;-69
2023/10/01 13:22:48;;;;;;;17.00;11.10;;;;;;;;;;5013567;28;20517;-68
2023/10/01 13:25:19;;;;;;;17.67;11.47;;;;;;;;;;5012025;28;20310;-69
2023/10/01 13:27:46;;;;;;;16.43;11.00;;;;;;;;;;5012026;28;20217;-68
2023/10/01 13:30:20;;;;;;;20.10;10.73;;;;;;;;;;5013068;28;20207;-69
2023/10/01 13:33:10;;;;;;;17.50;11.10;;;;;;;;;;5013622;28;20152;-69
2023/10/01 13:35:36;;;;;;;16.83;11.27;;;;;;;;;;5013088;28;20623;-68
2023/10/01 14:08:43;;;;;;;18.90;11.83;;;;;;;;;;4992357;28;20184;-68
2023/10/01 14:08:52;;;;;;;18.10;12.00;;;;;;;;;;5005208;28;20253;-69
2023/10/01 14:11:26;;;;;;;20.73;13.13;;;;;;;;;;5014669;28;20183;-69
2023/10/01 14:13:52;;;;;;;18.07;11.97;;;;;;;;;;5014887;28;20218;-69
2023/10/01 14:16:22;;;;;;;18.60;11.83;;;;;;;;;;5014955;28;20187;-69
2023/10/01 14:18:55;;;;;;;22.50;13.87;;;;;;;;;;5015042;28;20194;-69
2023/10/01 14:21:22;;;;;;;18.77;12.67;;;;;;;;;;5015118;28;20647;-69
2023/10/01 14:23:49;;;;;;;17.30;12.13;;;;;;;;;;5016824;28;20201;-69
2023/10/01 14:26:26;;;;;;;18.93;12.67;;;;;;;;;;5020154;28;20188;-69
2023/10/01 14:28:55;;;;;;;18.53;13.53;;;;;;;;;;5019831;28;20265;-69
2023/10/01 14:34:07;;;;;;;21.30;13.60;;;;;;;;;;5019292;28;20740;-68
2023/10/01 14:36:39;;;;;;;20.60;14.13;;;;;;;;;;5020188;28;20226;-69
2023/10/01 14:39:05;;;;;;;18.60;13.50;;;;;;;;;;5018918;28;20192;-69
2023/10/01 14:41:37;;;;;;;18.83;13.77;;;;;;;;;;5018300;28;20623;-69
2023/10/01 14:44:04;;;;;;;20.20;12.97;;;;;;;;;;5014999;28;20182;-68
2023/10/01 14:46:32;;;;;;;19.93;13.57;;;;;;;;;;5016225;28;20266;-68
2023/10/01 14:49:07;;;;;;;22.13;13.77;;;;;;;;;;5015960;28;20195;-68
2023/10/01 14:51:34;;;;;;;18.83;13.53;;;;;;;;;;5016203;28;20171;-68
2023/10/01 14:54:00;;;;;;;20.77;14.07;;;;;;;;;;5014568;28;20212;-69
2023/10/01 14:56:34;;;;;;;18.93;12.40;;;;;;;;;;5016463;28;20592;-69
2023/10/01 14:59:01;;;;;;;21.77;13.63;;;;;;;;;;5014935;28;20637;-69
2023/10/01 15:01:36;;;;;;;25.27;13.47;;;;;;;;;;5016239;28;20291;-69
2023/10/01 15:04:15;;;;;;;20.23;13.53;;;;;;;;;;5016104;28;20164;-69
2023/10/01 15:06:41;;;;;;;20.10;14.60;;;;;;;;;;5016062;28;20175;-69
2023/10/01 15:09:07;;;;;;;20.80;13.90;;;;;;;;;;5015989;28;20682;-69
2023/10/01 15:11:33;;;;;;;17.63;13.30;;;;;;;;;;5015717;28;20213;-69
2023/10/01 15:14:11;;;;;;;19.67;12.67;;;;;;;;;;5015613;28;20196;-70
2023/10/01 15:16:37;;;;;;;16.47;12.40;;;;;;;;;;5015827;28;20613;-70
2023/10/01 15:19:04;;;;;;;20.80;13.43;;;;;;;;;;5015576;28;20204;-69
2023/10/01 15:21:31;;;;;;;17.67;12.63;;;;;;;;;;5014433;28;20176;-69
2023/10/01 15:24:01;;;;;;;20.93;13.43;;;;;;;;;;5014712;28;20566;-70
2023/10/01 15:26:31;;;;;;;20.43;13.63;;;;;;;;;;5017430;28;20206;-70
2023/10/01 15:28:57;;;;;;;18.37;12.57;;;;;;;;;;5017129;28;20207;-70
2023/10/01 15:31:31;;;;;;;17.23;12.80;;;;;;;;;;5016081;28;20184;-69
2023/10/01 15:34:07;;;;;;;20.07;13.97;;;;;;;;;;5015464;28;20254;-69
2023/10/01 15:36:48;;;;;;;18.00;13.38;;;;;;;;;;5016934;28;20156;-70
2023/10/01 15:39:27;;;;;;;16.27;12.40;;;;;;;;;;5017089;28;20191;-69
2023/10/01 15:42:09;;;;;;;20.07;14.43;;;;;;;;;;5016868;28;20158;-69
2023/10/01 15:44:45;;;;;;;19.27;13.60;;;;;;;;;;5018267;28;20157;-69
2023/10/01 15:47:42;;;;;;;19.02;13.05;;;;;;;;;;5015954;28;20749;-69
2023/10/01 15:50:10;;;;;;;20.63;14.17;;;;;;;;;;5015369;28;20192;-69
2023/10/01 15:52:46;;;;;;;20.03;13.67;;;;;;;;;;5016844;28;20172;-69
2023/10/01 15:55:16;;;;;;;19.57;13.77;;;;;;;;;;5016622;28;20168;-69